Time;durP1;ratioP1;P1;durP2;ratioP2;P2;SDS_P1;SDS_P2;PMS_P1;PMS_P2;Temp;Humidity;BMP_temperature;BMP_pressure;BME280_temperature;BME280_humidity;BME280_pressure;Samples;Min_cycle;Max_cycle;Signal;HPM_P1;HPM_P2
2022/01/20 00:04:11;;;;;;;20.05;8.25;;;;;;;-2.30;60.89;93152.25;2074502;69;20159;-69
2022/01/20 00:07:18;;;;;;;18.20;8.27;;;;;;;-2.19;60.73;93157.69;2074785;69;20143;-68
2022/01/20 00:23:10;;;;;;;20.75;9.32;;;;;;;-2.31;60.53;93167.31;2074984;69;20262;-76
2022/01/20 00:28:17;;;;;;;16.13;7.05;;;;;;;-2.08;60.48;93159.56;2074794;69;20260;-69
2022/01/20 00:38:24;;;;;;;38.78;17.17;;;;;;;-2.19;61.16;93151.44;2074706;69;20144;-70
2022/01/20 00:40:50;;;;;;;39.92;16.05;;;;;;;-2.19;59.99;93146.66;2074884;69;20606;-74
2022/01/20 00:43:19;;;;;;;24.23;10.65;;;;;;;-2.07;60.60;93141.75;2071502;69;20629;-71
2022/01/20 00:45:46;;;;;;;37.33;17.02;;;;;;;-2.25;61.31;93143.19;2071421;69;20184;-69
2022/01/20 00:48:11;;;;;;;32.33;16.65;;;;;;;-2.80;62.66;93142.44;2071516;69;20150;-71
2022/01/20 00:50:38;;;;;;;39.00;17.52;;;;;;;-2.36;61.39;93154.34;2071290;69;20180;-69
2022/01/20 00:53:04;;;;;;;37.70;17.67;;;;;;;-2.36;61.12;93152.31;2074982;69;20177;-69
2022/01/20 00:55:31;;;;;;;40.50;18.38;;;;;;;-2.28;61.37;93160.03;2074841;69;20150;-69
2022/01/20 00:57:57;;;;;;;34.75;17.85;;;;;;;-2.24;60.93;93166.03;2071520;69;20132;-69
2022/01/20 01:00:23;;;;;;;32.08;15.45;;;;;;;-2.08;60.33;93170.59;2074795;69;20256;-73
2022/01/20 01:02:48;;;;;;;32.00;13.95;;;;;;;-2.03;59.95;93166.28;2074721;69;20218;-70
2022/01/20 01:05:14;;;;;;;28.65;14.32;;;;;;;-2.07;60.40;93178.34;2074774;69;20148;-72
2022/01/20 01:10:09;;;;;;;27.50;12.95;;;;;;;-1.92;59.98;93183.50;2074950;69;20128;-69
2022/01/20 01:13:14;;;;;;;25.92;12.52;;;;;;;-1.89;60.52;93178.94;2071319;69;20230;-70
2022/01/20 01:15:36;;;;;;;26.80;12.40;;;;;;;-1.76;59.90;93186.56;2074047;69;20231;-72
2022/01/20 01:23:39;;;;;;;21.83;8.98;;;;;;;-1.65;59.95;93192.72;2074771;69;20144;-70
2022/01/20 01:26:08;;;;;;;15.00;6.70;;;;;;;-1.59;60.19;93189.91;2071420;69;20220;-72
2022/01/20 01:28:34;;;;;;;17.25;8.82;;;;;;;-1.89;61.54;93209.28;2071381;69;20564;-70
2022/01/20 01:33:57;;;;;;;17.42;8.45;;;;;;;-1.67;61.50;93198.00;2074693;69;20239;-72
2022/01/20 01:36:26;;;;;;;20.08;8.32;;;;;;;-1.63;61.21;93194.97;2071243;69;20136;-72
2022/01/20 01:38:52;;;;;;;18.30;7.60;;;;;;;-1.53;60.44;93193.31;2071462;69;20156;-72
2022/01/20 01:41:28;;;;;;;22.08;9.07;;;;;;;-1.57;60.78;93195.63;2068551;69;20707;-70
2022/01/20 01:43:55;;;;;;;18.60;8.05;;;;;;;-1.43;60.52;93186.16;2071458;69;20252;-69
2022/01/20 01:46:21;;;;;;;16.58;7.25;;;;;;;-1.48;60.86;93189.75;2071453;69;20144;-69
2022/01/20 01:48:46;;;;;;;19.92;8.20;;;;;;;-1.41;60.42;93186.41;2070953;69;20175;-69
2022/01/20 01:51:12;;;;;;;16.98;7.97;;;;;;;-1.45;60.42;93187.97;2071079;69;20148;-69
2022/01/20 01:53:41;;;;;;;18.10;7.90;;;;;;;-1.40;60.33;93184.38;2071421;69;20567;-69
2022/01/20 01:56:07;;;;;;;16.58;7.95;;;;;;;-1.41;60.46;93183.66;2068559;69;20159;-69
2022/01/20 01:58:35;;;;;;;13.57;5.95;;;;;;;-1.17;59.64;93180.06;2074777;69;20246;-69
2022/01/20 02:01:08;;;;;;;10.75;5.68;;;;;;;-0.88;58.60;93172.84;2071603;69;20187;-70
2022/01/20 02:03:44;;;;;;;11.48;5.05;;;;;;;-0.79;58.73;93172.47;2071387;69;20202;-69
2022/01/20 02:09:35;;;;;;;12.93;5.25;;;;;;;-0.59;57.37;93170.44;2071211;69;20158;-71
2022/01/20 02:19:44;;;;;;;13.07;5.63;;;;;;;-0.30;57.06;93150.06;2071325;69;20152;-69
2022/01/20 02:22:30;;;;;;;14.23;5.95;;;;;;;-0.18;56.77;93147.09;2071324;69;20267;-68
2022/01/20 02:25:21;;;;;;;11.30;5.22;;;;;;;-0.22;56.71;93141.88;2071262;69;20144;-68
2022/01/20 02:27:47;;;;;;;10.32;4.88;;;;;;;-0.28;56.84;93130.16;2071133;69;20674;-69
2022/01/20 02:30:15;;;;;;;10.18;4.57;;;;;;;-0.03;56.59;93130.72;2074682;69;20146;-70
2022/01/20 02:32:42;;;;;;;10.23;4.63;;;;;;;0.05;56.48;93131.59;2071108;69;20151;-69
2022/01/20 02:35:10;;;;;;;11.93;5.90;;;;;;;0.04;56.67;93135.59;2071394;69;20255;-70
2022/01/20 02:37:37;;;;;;;13.25;6.45;;;;;;;-0.26;58.23;93136.66;2071324;69;20144;-69
2022/01/20 02:45:13;;;;;;;14.75;6.93;;;;;;;-0.45;59.55;93149.81;2074612;69;20132;-71
2022/01/20 02:47:39;;;;;;;15.38;7.07;;;;;;;-0.37;59.68;93149.94;2071234;69;20156;-69
2022/01/20 02:50:05;;;;;;;12.65;6.75;;;;;;;-0.19;57.88;93142.84;2074823;69;20505;-70
2022/01/20 02:52:35;;;;;;;15.55;6.70;;;;;;;-0.11;58.28;93141.69;2071526;69;20167;-69
2022/01/20 02:55:01;;;;;;;16.58;6.90;;;;;;;-0.11;58.24;93141.69;2074487;69;20325;-70
2022/01/20 02:57:27;;;;;;;15.07;7.22;;;;;;;-0.18;59.07;93134.03;2071115;69;20148;-69
2022/01/20 02:59:52;;;;;;;12.50;6.38;;;;;;;-0.12;57.99;93139.44;2074736;69;20254;-71
2022/01/20 03:02:18;;;;;;;16.25;6.45;;;;;;;-0.05;58.14;93122.94;2071695;69;20337;-70
2022/01/20 03:04:44;;;;;;;14.43;7.10;;;;;;;-0.11;58.92;93121.56;2071712;69;20199;-69
2022/01/20 03:07:19;;;;;;;9.90;5.05;;;;;;;0.04;58.77;93118.25;2071300;69;20600;-70
2022/01/20 03:09:44;;;;;;;10.32;5.10;;;;;;;0.18;57.52;93108.66;2071264;69;20191;-69
2022/01/20 03:12:11;;;;;;;14.07;6.38;;;;;;;-0.12;58.79;93109.75;2071465;69;20152;-69
2022/01/20 03:14:37;;;;;;;16.60;7.05;;;;;;;-0.11;58.84;93097.38;2071944;69;20148;-70
2022/01/20 03:17:03;;;;;;;14.82;6.82;;;;;;;0.12;58.43;93103.25;2071331;69;20235;-70
2022/01/20 03:19:28;;;;;;;11.55;6.70;;;;;;;0.04;58.42;93105.16;2071446;69;20248;-73
2022/01/20 03:21:54;;;;;;;12.45;6.55;;;;;;;0.15;57.68;93118.06;2071051;69;20184;-69
2022/01/20 03:24:19;;;;;;;17.80;6.85;;;;;;;0.12;58.57;93117.09;2071707;69;20136;-69
2022/01/20 03:26:45;;;;;;;16.20;6.88;;;;;;;-0.05;59.31;93109.09;2071094;69;20147;-69
2022/01/20 03:29:11;;;;;;;13.88;8.10;;;;;;;0.07;59.22;93106.13;2071765;69;20141;-66
2022/01/20 03:31:37;;;;;;;13.25;7.32;;;;;;;0.06;59.01;93108.16;2071343;69;20621;-69
2022/01/20 03:34:04;;;;;;;15.10;7.55;;;;;;;-0.06;58.80;93113.16;2071080;69;20206;-69
2022/01/20 03:36:31;;;;;;;14.55;7.60;;;;;;;-0.30;60.33;93103.03;2070888;69;20187;-69
2022/01/20 03:39:07;;;;;;;12.82;6.65;;;;;;;-0.63;61.89;93103.63;2071194;69;20148;-69
2022/01/20 03:41:35;;;;;;;15.88;6.93;;;;;;;-0.32;60.92;93099.28;2071129;69;20213;-71
2022/01/20 03:44:06;;;;;;;11.88;6.80;;;;;;;-0.15;60.38;93093.44;2071085;69;20611;-69
2022/01/20 03:46:33;;;;;;;15.70;7.53;;;;;;;-0.07;59.77;93088.78;2070978;69;20194;-69
2022/01/20 03:49:12;;;;;;;16.20;6.93;;;;;;;-0.02;58.93;93083.13;2071005;69;20230;-70
2022/01/20 03:51:38;;;;;;;18.02;7.20;;;;;;;0.06;59.26;93086.00;2071165;69;20171;-69
2022/01/20 03:54:05;;;;;;;17.35;6.95;;;;;;;0.04;59.69;93077.47;2071061;69;20172;-70
2022/01/20 03:56:49;;;;;;;13.55;7.43;;;;;;;-0.19;60.13;93070.88;2071731;69;20195;-71
2022/01/20 03:59:41;;;;;;;18.27;7.93;;;;;;;-0.09;60.12;93080.25;2068815;69;20171;-67
2022/01/20 04:02:08;;;;;;;15.38;7.38;;;;;;;-0.11;60.01;93082.81;2071248;69;20148;-71
2022/01/20 04:04:50;;;;;;;;;;;;;;;-0.30;60.72;93082.91;2071312;69;20149;-69
2022/01/20 04:07:20;;;;;;;15.52;6.90;;;;;;;-0.13;60.00;93088.16;2071199;69;20076;-71
2022/01/20 04:09:46;;;;;;;15.77;7.40;;;;;;;0.02;59.54;93087.59;2071203;69;20155;-70
2022/01/20 04:12:12;;;;;;;13.70;6.97;;;;;;;-0.34;60.86;93088.75;2068231;69;20156;-70
2022/01/20 04:14:45;;;;;;;15.05;6.88;;;;;;;-0.16;59.47;93089.19;2071218;69;20140;-68
2022/01/20 04:17:16;;;;;;;17.05;9.25;;;;;;;-0.16;59.52;93078.13;2071245;69;20155;-70
2022/01/20 04:19:42;;;;;;;16.65;7.40;;;;;;;-0.48;60.71;93081.72;2071237;69;20144;-69
2022/01/20 04:22:08;;;;;;;18.35;8.00;;;;;;;-0.26;60.52;93084.09;2071150;69;20161;-71
2022/01/20 04:24:34;;;;;;;16.13;8.52;;;;;;;-0.09;59.58;93094.84;2068444;69;20156;-71
2022/01/20 04:27:00;;;;;;;21.02;10.52;;;;;;;-0.12;59.63;93093.13;2071816;69;20610;-69
2022/01/20 04:29:27;;;;;;;16.30;9.93;;;;;;;-0.04;59.64;93099.53;2071221;69;20635;-70
2022/01/20 04:31:53;;;;;;;18.85;8.25;;;;;;;-0.13;59.54;93090.91;2071250;69;20208;-69
2022/01/20 04:34:19;;;;;;;14.80;8.00;;;;;;;-0.26;60.71;93084.09;2071173;69;20171;-69
2022/01/20 04:36:47;;;;;;;15.43;7.82;;;;;;;-0.12;60.24;93086.88;2071647;69;20145;-69
2022/01/20 04:39:18;;;;;;;18.15;9.35;;;;;;;0.00;59.76;93079.84;2071203;69;20595;-69
2022/01/20 04:41:44;;;;;;;19.90;10.88;;;;;;;0.06;59.21;93076.97;2071920;69;20152;-69
2022/01/20 04:44:29;;;;;;;25.98;13.32;;;;;;;0.03;59.51;93072.47;2071241;69;20239;-72
2022/01/20 04:47:03;;;;;;;21.77;12.43;;;;;;;0.08;59.63;93069.59;2071248;69;20196;-70
2022/01/20 04:57:49;;;;;;;22.17;10.90;;;;;;;0.17;58.93;93074.69;2071154;69;20210;-69
2022/01/20 05:00:16;;;;;;;17.98;9.02;;;;;;;-0.11;60.18;93082.81;2068393;69;20156;-69
2022/01/20 05:03:01;;;;;;;19.02;7.82;;;;;;;-0.01;59.29;93097.72;2071729;69;20130;-71
2022/01/20 05:05:27;;;;;;;15.65;7.65;;;;;;;-0.37;61.72;93089.81;2070959;69;20156;-69
2022/01/20 05:08:01;;;;;;;20.40;8.43;;;;;;;-0.20;60.28;93102.59;2071178;69;20247;-69
2022/01/20 05:10:30;;;;;;;17.08;8.50;;;;;;;-0.51;61.84;93105.66;2071128;69;20140;-70
2022/01/20 05:15:23;;;;;;;18.05;9.10;;;;;;;-0.30;60.98;93100.25;2071104;69;20160;-69
2022/01/20 05:17:50;;;;;;;17.25;8.70;;;;;;;-0.33;61.72;93097.81;2071073;69;20144;-70
2022/01/20 05:20:16;;;;;;;15.02;8.60;;;;;;;-0.24;61.75;93099.41;2071557;69;20151;-68
2022/01/20 05:22:43;;;;;;;16.00;8.27;;;;;;;-0.06;60.81;93104.09;2068325;69;20171;-69
2022/01/20 05:25:10;;;;;;;15.05;7.95;;;;;;;-0.03;60.36;93100.28;2071135;69;20145;-69
2022/01/20 05:27:36;;;;;;;18.17;9.38;;;;;;;-0.20;61.22;93108.13;2071195;69;20144;-71
2022/01/20 05:30:02;;;;;;;16.70;8.20;;;;;;;-0.05;60.13;93103.56;2071144;69;20140;-70
2022/01/20 05:32:29;;;;;;;18.05;8.45;;;;;;;0.07;59.77;93098.56;2071044;69;20180;-71
2022/01/20 05:34:55;;;;;;;17.45;8.70;;;;;;;0.20;59.39;93097.81;2071001;69;20147;-69
2022/01/20 05:37:22;;;;;;;18.40;9.20;;;;;;;0.04;60.48;93113.47;2071088;69;20166;-70
2022/01/20 05:39:48;;;;;;;19.20;9.93;;;;;;;0.07;59.74;93106.88;2071071;69;20152;-69
2022/01/20 05:42:20;;;;;;;22.75;9.88;;;;;;;0.05;60.84;93103.16;2071109;69;20144;-69
2022/01/20 05:44:53;;;;;;;21.50;9.90;;;;;;;0.07;60.85;93104.09;2071060;69;20290;-70
2022/01/20 05:47:26;;;;;;;19.95;10.30;;;;;;;0.18;60.38;93114.19;2071085;69;20263;-69
2022/01/20 05:50:07;;;;;;;18.23;10.02;;;;;;;0.23;60.22;93103.03;2071574;69;20155;-72
2022/01/20 05:52:36;;;;;;;22.13;10.55;;;;;;;0.25;59.95;93103.25;2070993;69;20588;-71
2022/01/20 05:55:02;;;;;;;18.95;9.60;;;;;;;0.23;59.86;93099.53;2071006;69;20141;-70
2022/01/20 05:57:27;;;;;;;22.92;11.77;;;;;;;0.09;59.74;93111.88;2071050;69;20213;-70
2022/01/20 05:59:53;;;;;;;23.60;12.57;;;;;;;0.14;59.97;93114.53;2071034;69;20159;-70
2022/01/20 06:05:13;;;;;;;23.42;12.15;;;;;;;0.30;59.14;93098.88;2067210;69;20252;-70
2022/01/20 06:07:38;;;;;;;26.45;12.48;;;;;;;0.29;59.78;93097.38;2071608;69;20311;-70
2022/01/20 06:10:04;;;;;;;26.20;12.48;;;;;;;0.28;60.00;93089.63;2071661;69;20267;-72
2022/01/20 06:12:30;;;;;;;29.27;12.63;;;;;;;0.30;59.65;93092.59;2071553;69;20143;-71
2022/01/20 06:14:55;;;;;;;21.38;11.43;;;;;;;0.32;59.96;93088.00;2071576;69;20141;-72
2022/01/20 06:17:27;;;;;;;24.38;11.55;;;;;;;0.35;59.68;93086.91;2071572;69;20152;-69
2022/01/20 06:19:56;;;;;;;25.98;11.77;;;;;;;-0.03;61.68;93089.94;2071605;69;20144;-69
2022/01/20 06:22:21;;;;;;;23.17;11.70;;;;;;;-0.10;61.92;93093.34;2071581;69;20148;-69
2022/01/20 06:24:47;;;;;;;27.92;12.20;;;;;;;0.24;59.98;93093.44;2071526;69;20155;-69
2022/01/20 06:27:13;;;;;;;26.05;11.95;;;;;;;0.33;60.78;93083.22;2071521;69;20160;-69
2022/01/20 06:29:38;;;;;;;25.40;11.55;;;;;;;0.25;60.76;93092.16;2071537;69;20171;-72
2022/01/20 06:32:05;;;;;;;28.17;13.73;;;;;;;0.11;60.52;93084.41;2071468;69;20529;-74
2022/01/20 06:34:32;;;;;;;29.85;13.60;;;;;;;0.09;61.45;93086.94;2074992;69;20144;-74
2022/01/20 06:36:57;;;;;;;25.50;13.70;;;;;;;0.14;61.29;93077.81;2071936;69;20222;-73
2022/01/20 06:39:24;;;;;;;26.27;14.10;;;;;;;0.16;61.17;93081.53;2071999;69;20159;-69
2022/01/20 06:41:51;;;;;;;28.58;15.25;;;;;;;0.20;60.75;93068.09;2072003;69;20493;-70
2022/01/20 06:44:17;;;;;;;25.67;12.70;;;;;;;0.19;60.41;93068.63;2072004;69;20146;-70
2022/01/20 06:46:42;;;;;;;27.55;12.88;;;;;;;0.27;60.88;93063.91;2071989;69;20140;-71
2022/01/20 06:49:18;;;;;;;29.13;13.88;;;;;;;0.22;61.36;93071.06;2072026;69;20152;-69
2022/01/20 06:52:09;;;;;;;25.05;13.23;;;;;;;0.24;61.26;93079.59;2074645;69;20206;-70
2022/01/20 06:54:36;;;;;;;28.88;13.82;;;;;;;0.35;60.43;93080.63;2071980;69;20140;-70
2022/01/20 06:57:04;;;;;;;28.73;14.18;;;;;;;0.37;60.73;93083.63;2071964;69;20626;-69
2022/01/20 06:59:30;;;;;;;27.38;13.45;;;;;;;0.38;59.92;93079.56;2071956;69;20132;-70
2022/01/20 07:01:56;;;;;;;28.30;14.57;;;;;;;0.29;61.06;93085.56;2075400;69;20194;-70
2022/01/20 07:04:27;;;;;;;32.40;17.08;;;;;;;0.24;60.71;93093.44;2072042;69;20148;-70
2022/01/20 07:06:53;;;;;;;26.10;14.48;;;;;;;0.15;61.60;93101.44;2075176;69;20243;-69
2022/01/20 07:09:39;;;;;;;27.80;14.75;;;;;;;-0.18;63.35;93100.81;2075398;69;20151;-69
2022/01/20 07:12:14;;;;;;;27.90;15.20;;;;;;;0.10;61.75;93111.34;2071987;69;20637;-70
2022/01/20 07:14:40;;;;;;;38.72;20.63;;;;;;;0.15;62.30;93113.25;2075329;69;20136;-70
2022/01/20 07:17:06;;;;;;;37.03;21.35;;;;;;;0.15;61.63;93120.81;2071935;69;20154;-71
2022/01/20 07:19:33;;;;;;;35.40;20.13;;;;;;;0.11;62.29;93118.38;2071934;69;20151;-72
2022/01/20 07:22:00;;;;;;;33.03;18.50;;;;;;;0.24;62.56;93137.00;2071806;69;20658;-71
2022/01/20 07:24:27;;;;;;;31.73;17.70;;;;;;;0.35;62.06;93124.97;2075437;69;20244;-72
2022/01/20 07:26:57;;;;;;;29.05;16.85;;;;;;;0.38;61.64;93121.13;2071958;69;20227;-69
2022/01/20 07:29:26;;;;;;;31.35;17.52;;;;;;;0.22;62.23;93129.22;2071946;69;20143;-70
2022/01/20 07:31:53;;;;;;;32.05;18.48;;;;;;;0.27;62.20;93132.41;2071893;69;20674;-69
2022/01/20 07:34:18;;;;;;;31.67;16.95;;;;;;;0.39;61.46;93137.19;2071914;69;20159;-71
2022/01/20 07:36:44;;;;;;;33.33;17.15;;;;;;;0.50;61.41;93137.00;2071835;69;20160;-70
2022/01/20 07:39:10;;;;;;;35.15;18.65;;;;;;;0.52;61.22;93124.63;2075287;69;20656;-69
2022/01/20 07:41:36;;;;;;;38.58;20.38;;;;;;;0.28;62.87;93123.59;2069019;69;20605;-70
2022/01/20 07:44:17;;;;;;;38.80;21.05;;;;;;;0.48;61.86;93119.41;2071907;69;20151;-70
2022/01/20 07:47:03;;;;;;;50.03;24.40;;;;;;;0.52;61.97;93117.06;2071141;69;20184;-71
2022/01/20 07:49:29;;;;;;;39.95;20.83;;;;;;;0.63;60.72;93116.81;2071915;69;20788;-71
2022/01/20 07:52:03;;;;;;;40.95;19.83;;;;;;;0.69;60.66;93103.59;2075131;69;20170;-70
2022/01/20 07:54:32;;;;;;;33.75;17.38;;;;;;;0.75;60.97;93095.16;2071884;69;20227;-70
2022/01/20 07:56:57;;;;;;;36.35;17.83;;;;;;;0.69;61.68;93095.28;2071811;69;20603;-70
2022/01/20 07:59:24;;;;;;;37.92;20.80;;;;;;;0.05;64.59;93094.84;2071879;69;20601;-70
2022/01/20 08:01:51;;;;;;;37.00;19.73;;;;;;;0.51;63.56;93093.41;2071888;69;20144;-72
2022/01/20 08:04:17;;;;;;;38.15;20.23;;;;;;;0.74;62.42;93102.72;2071836;69;20209;-71
2022/01/20 08:06:43;;;;;;;38.58;19.98;;;;;;;0.79;61.99;93094.81;2071669;69;20147;-71
2022/01/20 08:09:18;;;;;;;36.63;18.98;;;;;;;0.90;61.97;93102.88;2071927;69;20148;-74
2022/01/20 08:11:56;;;;;;;40.85;18.95;;;;;;;0.87;61.23;93099.16;2071837;69;20227;-71
2022/01/20 08:14:40;;;;;;;43.30;21.30;;;;;;;0.88;61.92;93102.69;2071921;69;20233;-73
2022/01/20 08:17:07;;;;;;;44.42;21.88;;;;;;;0.70;61.70;93107.09;2071928;69;20171;-74
2022/01/20 08:19:35;;;;;;;45.00;21.73;;;;;;;0.78;62.12;93110.72;2071835;69;20151;-72
2022/01/20 08:22:01;;;;;;;40.03;19.80;;;;;;;0.86;62.27;93108.00;2071702;69;20155;-74
2022/01/20 08:24:26;;;;;;;41.55;21.58;;;;;;;1.07;61.42;93119.13;2071832;69;20164;-75
2022/01/20 08:26:53;;;;;;;42.08;20.63;;;;;;;1.16;61.53;93110.34;2071947;69;20136;-72
2022/01/20 08:29:18;;;;;;;34.03;17.58;;;;;;;1.32;60.13;93102.91;2071750;69;20669;-73
2022/01/20 08:31:44;;;;;;;19.58;11.10;;;;;;;1.38;58.68;93104.28;2075239;69;20144;-72
2022/01/20 08:34:29;;;;;;;18.23;8.52;;;;;;;1.39;60.94;93099.47;2071798;69;20171;-70
2022/01/20 08:37:25;;;;;;;16.85;8.90;;;;;;;1.53;60.04;93087.00;2072613;69;20240;-69
2022/01/20 08:39:51;;;;;;;41.50;19.02;;;;;;;1.01;62.75;93091.56;2071786;69;20140;-69
2022/01/20 08:42:17;;;;;;;45.03;20.30;;;;;;;1.49;60.80;93089.38;2071820;69;20142;-70
2022/01/20 08:44:42;;;;;;;36.20;18.38;;;;;;;1.76;60.29;93096.25;2071756;69;20131;-69
2022/01/20 08:47:15;;;;;;;36.05;19.10;;;;;;;1.63;61.26;93104.66;2071685;69;20152;-69
2022/01/20 08:49:42;;;;;;;37.92;19.63;;;;;;;1.59;61.95;93107.03;2071713;69;20151;-69
2022/01/20 08:52:08;;;;;;;34.90;17.90;;;;;;;1.84;61.20;93104.66;2074940;69;20607;-69
2022/01/20 08:54:43;;;;;;;35.42;17.27;;;;;;;2.06;60.60;93106.06;2071828;69;20155;-70
2022/01/20 08:57:16;;;;;;;32.17;15.50;;;;;;;2.17;60.65;93105.03;2071783;69;20148;-70
2022/01/20 08:59:42;;;;;;;35.97;16.15;;;;;;;2.10;60.92;93108.50;2075110;69;20258;-71
2022/01/20 09:02:12;;;;;;;32.55;15.52;;;;;;;2.16;60.50;93126.53;2071743;69;20154;-71
2022/01/20 09:04:38;;;;;;;27.90;16.23;;;;;;;2.35;60.41;93144.97;2071726;69;20148;-71
2022/01/20 09:07:24;;;;;;;34.60;19.65;;;;;;;2.48;60.29;93136.53;2075136;69;20625;-71
2022/01/20 09:09:50;;;;;;;28.92;16.83;;;;;;;2.52;59.85;93142.44;2071709;69;20168;-76
2022/01/20 09:17:51;;;;;;;32.80;18.48;;;;;;;2.53;60.25;93122.47;2071698;69;20182;-70
2022/01/20 09:20:17;;;;;;;37.10;19.23;;;;;;;2.71;59.42;93114.41;2071599;69;20471;-74
2022/01/20 09:22:43;;;;;;;32.25;17.48;;;;;;;2.89;59.06;93116.13;2071570;69;20721;-75
2022/01/20 09:25:09;;;;;;;30.73;16.38;;;;;;;3.08;60.14;93115.81;2071597;69;20174;-70
2022/01/20 09:27:37;;;;;;;25.95;14.25;;;;;;;3.39;60.53;93115.88;2071635;69;20209;-69
2022/01/20 09:30:04;;;;;;;22.80;12.25;;;;;;;3.69;58.31;93113.13;2068868;69;20148;-69
2022/01/20 09:32:34;;;;;;;20.25;10.02;;;;;;;3.53;58.08;93109.59;2071617;69;20269;-69
2022/01/20 09:35:00;;;;;;;23.75;12.27;;;;;;;3.66;57.15;93119.78;2071546;69;20147;-69
2022/01/20 09:37:26;;;;;;;24.92;13.13;;;;;;;3.45;57.82;93122.00;2071659;69;20175;-69
2022/01/20 09:39:52;;;;;;;24.48;12.50;;;;;;;3.63;57.73;93117.41;2071648;69;20601;-69
2022/01/20 09:42:40;;;;;;;33.72;16.27;;;;;;;3.69;57.82;93134.66;2074966;69;20155;-69
2022/01/20 09:45:06;;;;;;;38.13;22.23;;;;;;;3.78;58.25;93128.53;2071646;69;20140;-69
2022/01/20 09:47:32;;;;;;;54.15;28.02;;;;;;;3.59;58.15;93126.13;2071629;69;20156;-69
2022/01/20 09:50:22;;;;;;;55.05;29.10;;;;;;;3.79;58.20;93139.09;2071786;69;20668;-70
2022/01/20 09:53:06;;;;;;;35.50;18.50;;;;;;;3.90;57.86;93128.91;2075719;69;20506;-70
2022/01/20 09:55:48;;;;;;;32.30;15.67;;;;;;;3.87;57.08;93114.06;2072027;69;20602;-70
2022/01/20 09:58:15;;;;;;;22.38;13.50;;;;;;;4.06;56.91;93122.03;2072225;69;20631;-69
2022/01/20 10:00:43;;;;;;;26.48;14.38;;;;;;;4.15;56.64;93127.03;2071685;69;20144;-70
2022/01/20 10:03:12;;;;;;;26.35;14.90;;;;;;;4.29;56.69;93133.88;2071655;69;20209;-77
2022/01/20 10:05:50;;;;;;;29.55;16.00;;;;;;;4.17;57.24;93141.16;2070881;69;20595;-75
2022/01/20 10:08:21;;;;;;;27.30;15.55;;;;;;;3.88;57.43;93156.56;2071097;69;20210;-76
2022/01/20 10:11:06;;;;;;;28.48;14.15;;;;;;;4.12;57.64;93153.22;2071411;69;20243;-72
2022/01/20 10:13:56;;;;;;;21.95;12.65;;;;;;;4.14;56.76;93163.81;2072021;69;20181;-69
2022/01/20 10:16:40;;;;;;;22.25;13.05;;;;;;;4.34;56.63;93155.25;2072280;69;20171;-74
2022/01/20 10:19:29;;;;;;;23.67;13.38;;;;;;;4.57;56.46;93155.22;2071517;69;20155;-69
2022/01/20 10:21:57;;;;;;;23.45;12.80;;;;;;;4.56;56.50;93158.56;2071458;69;20148;-69
2022/01/20 10:24:57;;;;;;;26.48;13.65;;;;;;;4.05;58.35;93173.47;2065302;69;20194;-72
2022/01/20 10:27:51;;;;;;;21.27;10.82;;;;;;;4.40;56.68;93160.66;2071950;69;20637;-71
2022/01/20 10:30:18;;;;;;;23.80;11.93;;;;;;;4.85;55.62;93156.25;2071548;69;20140;-70
2022/01/20 10:32:49;;;;;;;18.88;10.88;;;;;;;5.17;56.07;93166.00;2071487;69;20180;-70
2022/01/20 10:35:17;;;;;;;18.60;8.50;;;;;;;5.22;54.46;93143.47;2071440;69;20278;-70
2022/01/20 10:38:13;;;;;;;13.95;6.00;;;;;;;5.47;52.21;93135.16;2071494;69;20181;-69
2022/01/20 10:40:56;;;;;;;10.07;5.90;;;;;;;5.69;51.25;93141.91;2071515;69;20158;-68
2022/01/20 10:43:31;;;;;;;9.90;5.15;;;;;;;6.06;50.74;93134.56;2071475;69;20143;-69
2022/01/20 10:46:13;;;;;;;9.43;4.53;;;;;;;6.16;51.35;93134.69;2071467;69;20171;-69
2022/01/20 10:48:40;;;;;;;8.10;5.00;;;;;;;6.11;49.54;93125.22;2071426;69;20199;-69
2022/01/20 10:51:17;;;;;;;4.15;2.65;;;;;;;6.04;48.25;93111.28;2071275;69;20144;-69
2022/01/20 10:54:01;;;;;;;3.50;2.60;;;;;;;6.28;48.13;93088.19;2071464;69;20149;-70
2022/01/20 10:56:28;;;;;;;4.65;2.53;;;;;;;6.58;46.60;93091.97;2071392;69;20570;-70
2022/01/20 10:59:05;;;;;;;7.30;3.05;;;;;;;6.22;46.59;93082.06;2071357;69;20243;-69
2022/01/20 11:01:30;;;;;;;8.70;2.70;;;;;;;5.97;46.40;93084.16;2071428;69;20144;-71
2022/01/20 11:03:58;;;;;;;3.92;2.72;;;;;;;6.45;45.92;93089.50;2071404;69;20148;-70
2022/01/20 11:06:24;;;;;;;4.03;2.67;;;;;;;6.62;46.58;93075.50;2071308;69;20175;-73
2022/01/20 11:09:06;;;;;;;4.63;2.60;;;;;;;6.60;46.67;93069.75;2071406;69;20610;-69
2022/01/20 11:11:52;;;;;;;5.65;2.72;;;;;;;6.80;45.54;93074.19;2071915;69;20182;-69
2022/01/20 11:14:38;;;;;;;5.30;2.70;;;;;;;6.54;45.85;93069.25;2071913;69;20159;-69
2022/01/20 11:17:04;;;;;;;10.60;2.60;;;;;;;6.27;46.57;93078.28;2071399;69;20235;-69
2022/01/20 11:19:36;;;;;;;3.17;1.70;;;;;;;6.15;47.04;93080.09;2071425;69;20172;-71
2022/01/20 11:22:11;;;;;;;3.72;1.70;;;;;;;6.38;47.15;93087.53;2071237;69;20140;-74
2022/01/20 11:24:39;;;;;;;6.60;1.88;;;;;;;6.15;46.92;93085.69;2071395;69;20152;-73
2022/01/20 11:27:07;;;;;;;3.70;1.83;;;;;;;5.84;46.82;93080.31;2071963;69;20229;-72
2022/01/20 11:29:49;;;;;;;2.85;1.73;;;;;;;6.29;46.74;93072.13;2072059;69;20244;-71
2022/01/20 11:33:00;;;;;;;2.17;1.55;;;;;;;6.23;46.49;93082.81;2070154;69;20246;-73
2022/01/20 11:35:42;;;;;;;8.38;3.15;;;;;;;6.39;46.64;93080.59;2071275;69;20144;-69
2022/01/20 11:38:09;;;;;;;6.32;2.22;;;;;;;6.39;46.55;93077.81;2071420;69;20494;-70
2022/01/20 11:40:49;;;;;;;2.55;1.60;;;;;;;6.38;46.67;93088.25;2071410;69;20163;-73
2022/01/20 11:43:15;;;;;;;5.07;2.03;;;;;;;6.32;46.73;93082.16;2071947;69;20204;-75
2022/01/20 11:45:49;;;;;;;6.25;2.45;;;;;;;6.22;47.21;93081.31;2071920;69;20718;-72
2022/01/20 11:48:19;;;;;;;6.05;2.03;;;;;;;6.34;46.82;93088.66;2072055;69;20183;-72
2022/01/20 11:50:47;;;;;;;3.55;1.70;;;;;;;6.56;46.68;93077.81;2071763;69;20530;-75
2022/01/20 11:53:18;;;;;;;1.40;1.00;;;;;;;6.41;46.06;93075.91;2071905;69;20221;-74
2022/01/20 11:55:52;;;;;;;4.97;1.00;;;;;;;6.80;46.67;93079.78;2071909;69;20152;-73
2022/01/20 11:58:21;;;;;;;1.95;0.93;;;;;;;6.67;46.07;93079.38;2071960;69;20141;-75
2022/01/20 12:01:01;;;;;;;2.05;0.85;;;;;;;6.70;45.98;93087.38;2071720;69;20218;-70
2022/01/20 12:03:28;;;;;;;2.53;1.10;;;;;;;6.82;46.11;93079.19;2071844;69;20223;-70
2022/01/20 12:05:59;;;;;;;2.65;1.20;;;;;;;6.74;46.08;93081.34;2069764;69;20229;-70
2022/01/20 12:08:32;;;;;;;1.25;0.90;;;;;;;6.46;46.28;93065.78;2068485;69;20662;-74
2022/01/20 12:11:09;;;;;;;4.03;1.50;;;;;;;6.54;45.63;93060.88;2068562;69;20603;-70
2022/01/20 12:13:46;;;;;;;7.30;2.17;;;;;;;6.66;46.12;93070.25;2068488;69;20144;-70
2022/01/20 12:16:17;;;;;;;2.58;1.65;;;;;;;6.77;46.01;93050.16;2068458;69;20183;-69
2022/01/20 12:18:49;;;;;;;1.80;1.38;;;;;;;7.14;45.01;93039.03;2068526;69;20255;-71
2022/01/20 12:21:15;;;;;;;2.15;1.30;;;;;;;7.27;45.18;93041.47;2068488;69;20152;-71
2022/01/20 12:23:42;;;;;;;1.63;0.88;;;;;;;7.47;45.46;93039.53;2068541;69;20152;-71
2022/01/20 12:26:08;;;;;;;1.42;0.98;;;;;;;7.46;45.18;93051.28;2068477;69;20585;-71
2022/01/20 12:28:33;;;;;;;3.22;1.42;;;;;;;7.27;43.86;93049.88;2067998;69;20152;-70
2022/01/20 12:31:04;;;;;;;2.95;1.33;;;;;;;6.33;45.41;93045.25;2068493;69;20160;-71
2022/01/20 12:33:34;;;;;;;1.42;1.10;;;;;;;6.84;45.23;93037.41;2068223;69;20175;-71
2022/01/20 12:36:02;;;;;;;3.45;1.80;;;;;;;6.93;45.92;93050.72;2068284;69;20172;-76
2022/01/20 12:38:39;;;;;;;2.05;1.42;;;;;;;6.82;45.86;93045.63;2068383;69;20259;-73
2022/01/20 12:41:16;;;;;;;1.70;1.08;;;;;;;7.03;45.12;93056.38;2068375;69;20141;-75
2022/01/20 12:43:48;;;;;;;2.40;1.40;;;;;;;7.04;45.20;93058.59;2068421;69;20258;-74
2022/01/20 12:46:20;;;;;;;1.98;0.90;;;;;;;6.23;46.44;93054.84;2068397;69;20140;-71
2022/01/20 12:49:01;;;;;;;1.20;1.00;;;;;;;6.24;45.12;93054.28;2068460;69;20236;-73
2022/01/20 12:51:39;;;;;;;2.40;1.55;;;;;;;6.53;46.33;93056.59;2068264;69;20152;-76
2022/01/20 12:54:11;;;;;;;1.33;0.80;;;;;;;6.27;45.86;93052.38;2067542;69;20259;-75
2022/01/20 12:56:39;;;;;;;1.10;0.70;;;;;;;5.98;46.21;93052.09;2065038;69;20155;-75
2022/01/20 12:59:05;;;;;;;1.23;0.85;;;;;;;6.09;45.25;93046.78;2064963;69;20145;-71